createdAt,value
2022-10-24T04:01:05.187Z,98.45
2022-10-24T04:04:07.797Z,98.53
2022-10-24T04:07:09.900Z,98.36
2022-10-24T04:10:12.635Z,98.52
2022-10-24T04:13:14.675Z,97.55
2022-10-24T04:16:17.991Z,97.46
2022-10-24T04:19:20.033Z,97.21
2022-10-24T04:22:22.556Z,96.62
2022-10-24T04:25:24.604Z,96.48
2022-10-24T04:28:27.737Z,96.42
2022-10-24T04:31:29.858Z,95.51
2022-10-24T04:34:35.964Z,95.56
2022-10-24T04:37:38.036Z,94.68
2022-10-24T04:40:40.333Z,95.66
2022-10-24T04:43:42.471Z,95.13
2022-10-24T04:46:49.246Z,95.66
2022-10-24T04:49:53.921Z,95.03
2022-10-24T04:52:56.217Z,94.95
2022-10-24T04:55:58.249Z,94.84
2022-10-24T04:59:00.914Z,94.69
2022-10-24T05:02:03.019Z,94.23
2022-10-24T05:05:05.950Z,93.72
2022-10-24T05:08:08.817Z,93.77
2022-10-24T05:11:11.694Z,93.68
2022-10-24T05:14:14.250Z,94.19
2022-10-24T05:17:16.701Z,94.52
2022-10-24T05:20:18.854Z,94.32
2022-10-24T05:23:21.134Z,93.92
2022-10-24T05:26:23.227Z,93.94
2022-10-24T05:29:26.202Z,94.76
2022-10-24T05:32:28.347Z,93.69
2022-10-24T05:35:30.656Z,93.10
2022-10-24T05:38:32.697Z,92.60
2022-10-24T05:41:35.005Z,92.33
2022-10-24T05:44:37.656Z,92.71
2022-10-24T05:47:40.185Z,93.09
2022-10-24T05:50:42.832Z,92.87
2022-10-24T05:53:45.348Z,92.45
2022-10-24T05:56:47.517Z,92.98
2022-10-24T05:59:49.905Z,92.69
2022-10-24T06:02:52.012Z,92.39
2022-10-24T06:05:54.479Z,92.93
2022-10-24T06:08:56.619Z,92.32
2022-10-24T06:11:58.941Z,92.24
2022-10-24T06:15:01.187Z,91.13
2022-10-24T06:18:04.224Z,91.88
2022-10-24T06:21:08.300Z,92.01
2022-10-24T06:24:10.624Z,91.75
2022-10-24T06:27:13.382Z,92.44
2022-10-24T06:30:16.346Z,91.71
2022-10-24T06:33:18.454Z,91.56
2022-10-24T06:36:20.998Z,91.56
2022-10-24T06:39:23.153Z,91.29
2022-10-24T06:42:25.566Z,91.84
2022-10-24T06:45:27.606Z,90.96
2022-10-24T06:48:29.901Z,90.95
2022-10-24T06:51:32.062Z,92.03
2022-10-24T06:54:35.323Z,91.09
2022-10-24T06:57:37.356Z,91.14
2022-10-24T07:00:39.666Z,92.20
2022-10-24T07:03:41.948Z,91.77
2022-10-24T07:06:44.434Z,91.65
2022-10-24T07:09:55.258Z,91.45
2022-10-24T07:12:57.570Z,92.26
2022-10-24T07:15:59.795Z,92.79
2022-10-24T07:19:02.781Z,92.79
2022-10-24T07:22:06.101Z,93.38
2022-10-24T07:25:09.286Z,92.83
2022-10-24T07:28:12.314Z,93.33
2022-10-24T07:31:17.677Z,92.71
2022-10-24T07:34:19.750Z,92.99
2022-10-24T07:37:22.072Z,92.75
2022-10-24T07:40:24.215Z,92.43
2022-10-24T07:43:26.575Z,93.20
2022-10-24T07:46:29.381Z,93.04
2022-10-24T07:49:33.675Z,94.35
2022-10-24T07:52:35.985Z,93.78
2022-10-24T07:55:42.935Z,95.21
2022-10-24T07:58:46.386Z,95.47
2022-10-24T08:01:48.758Z,96.09
2022-10-24T08:04:51.136Z,95.91
2022-10-24T08:07:56.230Z,95.81
2022-10-24T08:11:18.277Z,96.94
2022-10-24T08:14:20.326Z,96.56
2022-10-24T08:17:23.319Z,95.64
2022-10-24T08:20:26.204Z,95.34
2022-10-24T08:23:28.769Z,95.34
2022-10-24T08:26:30.797Z,95.62
2022-10-24T08:29:33.104Z,95.80
2022-10-24T08:32:36.048Z,95.59
2022-10-24T08:35:38.366Z,95.48
2022-10-24T08:38:40.510Z,95.76
2022-10-24T08:41:59.251Z,96.12
2022-10-24T08:45:02.537Z,96.11
2022-10-24T08:48:08.554Z,95.99
2022-10-24T08:51:35.312Z,95.61
2022-10-24T08:54:41.502Z,96.49
2022-10-24T08:57:48.907Z,96.18
2022-10-24T09:00:53.445Z,97.11
2022-10-24T09:03:58.283Z,96.45
2022-10-24T09:07:01.451Z,95.93
2022-10-24T09:10:32.754Z,96.00
2022-10-24T09:13:37.898Z,95.89
2022-10-24T09:16:42.866Z,94.19
2022-10-24T09:19:57.014Z,94.74
2022-10-24T09:23:01.953Z,94.23
2022-10-24T09:26:08.106Z,93.43
2022-10-24T09:29:10.149Z,93.92
2022-10-24T09:32:21.906Z,92.56
2022-10-24T09:35:29.926Z,93.48
2022-10-24T09:38:37.174Z,93.52
2022-10-24T09:41:39.282Z,91.34
2022-10-24T09:44:43.684Z,91.78
2022-10-24T09:47:46.207Z,91.52
2022-10-24T09:50:51.432Z,92.13
2022-10-24T09:54:11.520Z,92.82
2022-10-24T10:00:29.892Z,91.95
2022-10-24T10:03:34.300Z,92.22
2022-10-24T10:06:44.198Z,93.08
2022-10-24T10:09:56.823Z,94.67
2022-10-24T10:13:24.924Z,94.37
2022-10-24T10:16:37.827Z,95.62
2022-10-24T10:19:46.358Z,96.30
2022-10-24T10:22:48.662Z,96.27
2022-10-24T10:26:05.061Z,96.93
2022-10-24T10:29:16.392Z,96.25
2022-10-24T10:32:31.609Z,96.62
2022-10-24T10:36:03.204Z,96.90
2022-10-24T10:39:19.737Z,96.49
2022-10-24T10:42:40.565Z,95.86
2022-10-24T10:45:48.361Z,96.05
2022-10-24T10:49:11.052Z,95.27
2022-10-24T10:52:17.162Z,95.92
2022-10-24T10:55:25.168Z,95.46
2022-10-24T10:58:56.592Z,94.25
2022-10-24T11:02:17.900Z,96.30
2022-10-24T11:05:33.171Z,94.21
2022-10-24T11:08:57.114Z,92.88
2022-10-24T11:12:15.528Z,93.79
2022-10-24T11:15:26.356Z,93.65
2022-10-24T11:18:36.602Z,93.81
2022-10-24T11:21:41.528Z,93.52
2022-10-24T11:24:50.233Z,94.11
2022-10-24T11:28:18.353Z,94.23
2022-10-24T11:31:28.575Z,92.16
2022-10-24T11:34:38.487Z,93.45
2022-10-24T11:37:45.074Z,93.24
2022-10-24T11:40:57.786Z,93.06
2022-10-24T11:44:12.084Z,92.17
2022-10-24T11:47:24.178Z,92.02
2022-10-24T11:50:48.142Z,93.01
2022-10-24T11:54:03.735Z,91.66
2022-10-24T11:57:17.792Z,91.42
2022-10-24T12:00:24.967Z,91.87
2022-10-24T12:03:42.178Z,91.61
2022-10-24T12:07:02.897Z,91.29
2022-10-24T12:10:23.975Z,91.89
2022-10-24T12:13:44.414Z,91.65
2022-10-24T12:16:55.893Z,91.04
2022-10-24T12:20:01.149Z,91.41
2022-10-24T12:23:04.425Z,91.51
2022-10-24T12:26:24.965Z,92.41
2022-10-24T12:29:28.024Z,91.51
2022-10-24T12:32:40.591Z,91.40
2022-10-24T12:35:47.025Z,90.32
2022-10-24T12:38:48.976Z,88.76
2022-10-24T12:41:51.265Z,89.95
2022-10-24T12:44:59.441Z,91.17
2022-10-24T12:48:31.300Z,90.41
2022-10-24T12:51:38.231Z,91.81
2022-10-24T12:54:44.694Z,91.84
2022-10-24T12:57:47.353Z,91.67
2022-10-24T13:01:01.650Z,90.79
2022-10-24T13:04:37.846Z,91.03
2022-10-24T13:07:58.643Z,91.21
2022-10-24T13:11:09.117Z,91.20
2022-10-24T13:14:39.944Z,91.38
2022-10-24T13:18:11.984Z,90.72
2022-10-24T13:21:20.253Z,91.58
2022-10-24T13:24:27.893Z,91.18
2022-10-24T13:27:31.833Z,94.85
2022-10-24T13:30:33.946Z,89.33
2022-10-24T13:33:39.253Z,89.16
2022-10-24T13:36:42.212Z,89.47
2022-10-24T13:39:50.273Z,89.47
2022-10-24T13:43:00.975Z,89.71
2022-10-24T13:46:12.866Z,90.36
2022-10-24T13:49:23.390Z,90.02
2022-10-24T13:52:28.662Z,89.64
2022-10-24T13:55:36.990Z,89.74
2022-10-24T13:58:44.308Z,90.54
2022-10-24T14:01:47.406Z,91.28
2022-10-24T14:04:51.863Z,92.26
2022-10-24T14:07:57.102Z,91.13
2022-10-24T14:11:29.554Z,91.35
2022-10-24T14:14:39.994Z,91.74
2022-10-24T14:17:53.642Z,92.11
2022-10-24T14:21:02.052Z,90.99
2022-10-24T14:24:14.006Z,90.31
2022-10-24T14:27:16.900Z,90.40
2022-10-24T14:30:22.335Z,91.37
2022-10-24T14:33:29.693Z,90.71
2022-10-24T14:36:36.114Z,90.80
2022-10-24T14:39:38.984Z,90.85
2022-10-24T14:42:41.777Z,90.69
2022-10-24T14:46:25.701Z,90.50
2022-10-24T14:49:36.716Z,90.87
2022-10-24T14:52:40.010Z,91.19
2022-10-24T14:55:52.265Z,90.97
2022-10-24T14:58:56.934Z,90.87
2022-10-24T15:02:05.990Z,91.12
2022-10-24T15:05:20.438Z,91.58
2022-10-24T15:11:59.045Z,92.39
2022-10-24T15:15:24.336Z,91.67
2022-10-24T15:18:29.774Z,91.65
2022-10-24T15:21:38.205Z,91.97
2022-10-24T15:24:44.128Z,91.91
2022-10-24T15:27:47.334Z,92.54
2022-10-24T15:30:49.534Z,92.34
2022-10-24T15:33:51.841Z,92.86
2022-10-24T15:36:54.033Z,92.35
2022-10-24T15:39:56.411Z,92.59
2022-10-24T15:43:00.564Z,92.68
2022-10-24T15:46:04.619Z,94.12
2022-10-24T15:49:06.638Z,93.33
2022-10-24T15:52:14.986Z,93.34
2022-10-24T15:55:19.687Z,92.78
2022-10-24T15:58:21.994Z,93.30
